sensor_id;sensor_type;location;lat;lon;timestamp;P1;durP1;ratioP1;P2;durP2;ratioP2
23376;SDS011;14353;46.070;13.222;2023-03-08T00:00:14;5.70;;;5.10;;
23376;SDS011;14353;46.070;13.222;2023-03-08T00:02:41;6.80;;;5.28;;
23376;SDS011;14353;46.070;13.222;2023-03-08T00:05:08;6.32;;;5.13;;
23376;SDS011;14353;46.070;13.222;2023-03-08T00:07:34;6.47;;;5.25;;
23376;SDS011;14353;46.070;13.222;2023-03-08T00:10:00;6.47;;;5.07;;
23376;SDS011;14353;46.070;13.222;2023-03-08T00:12:27;7.22;;;5.25;;
23376;SDS011;14353;46.070;13.222;2023-03-08T00:14:53;6.32;;;4.95;;
23376;SDS011;14353;46.070;13.222;2023-03-08T00:17:18;6.32;;;5.10;;
23376;SDS011;14353;46.070;13.222;2023-03-08T00:19:44;5.85;;;5.00;;
23376;SDS011;14353;46.070;13.222;2023-03-08T00:22:10;6.15;;;5.00;;
23376;SDS011;14353;46.070;13.222;2023-03-08T00:24:36;6.80;;;5.40;;
23376;SDS011;14353;46.070;13.222;2023-03-08T00:27:03;6.72;;;5.10;;
23376;SDS011;14353;46.070;13.222;2023-03-08T00:29:29;7.20;;;5.13;;
23376;SDS011;14353;46.070;13.222;2023-03-08T00:31:55;5.20;;;4.38;;
23376;SDS011;14353;46.070;13.222;2023-03-08T00:34:21;6.80;;;5.00;;
23376;SDS011;14353;46.070;13.222;2023-03-08T00:36:47;6.75;;;4.85;;
23376;SDS011;14353;46.070;13.222;2023-03-08T00:39:12;7.53;;;5.30;;
23376;SDS011;14353;46.070;13.222;2023-03-08T00:41:40;6.68;;;4.95;;
23376;SDS011;14353;46.070;13.222;2023-03-08T00:44:06;6.88;;;5.35;;
23376;SDS011;14353;46.070;13.222;2023-03-08T00:46:32;5.93;;;4.82;;
23376;SDS011;14353;46.070;13.222;2023-03-08T00:48:57;6.72;;;5.00;;
23376;SDS011;14353;46.070;13.222;2023-03-08T00:51:23;5.18;;;4.65;;
23376;SDS011;14353;46.070;13.222;2023-03-08T00:53:50;6.63;;;5.18;;
23376;SDS011;14353;46.070;13.222;2023-03-08T00:56:16;5.97;;;4.85;;
23376;SDS011;14353;46.070;13.222;2023-03-08T00:58:42;6.72;;;4.80;;
23376;SDS011;14353;46.070;13.222;2023-03-08T01:01:08;7.15;;;4.80;;
23376;SDS011;14353;46.070;13.222;2023-03-08T01:03:39;5.93;;;4.85;;
23376;SDS011;14353;46.070;13.222;2023-03-08T01:06:06;6.28;;;5.00;;
23376;SDS011;14353;46.070;13.222;2023-03-08T01:08:34;6.28;;;4.80;;
23376;SDS011;14353;46.070;13.222;2023-03-08T01:11:00;6.47;;;4.85;;
23376;SDS011;14353;46.070;13.222;2023-03-08T01:13:27;6.30;;;5.00;;
23376;SDS011;14353;46.070;13.222;2023-03-08T01:15:55;6.43;;;4.90;;
23376;SDS011;14353;46.070;13.222;2023-03-08T01:18:21;5.75;;;4.70;;
23376;SDS011;14353;46.070;13.222;2023-03-08T01:20:54;5.28;;;4.43;;
23376;SDS011;14353;46.070;13.222;2023-03-08T01:23:27;5.60;;;4.60;;
23376;SDS011;14353;46.070;13.222;2023-03-08T01:25:56;5.78;;;4.75;;
23376;SDS011;14353;46.070;13.222;2023-03-08T01:28:33;5.78;;;4.80;;
23376;SDS011;14353;46.070;13.222;2023-03-08T01:31:00;5.28;;;4.78;;
23376;SDS011;14353;46.070;13.222;2023-03-08T01:33:35;5.60;;;4.82;;
23376;SDS011;14353;46.070;13.222;2023-03-08T01:36:04;6.07;;;5.18;;
23376;SDS011;14353;46.070;13.222;2023-03-08T01:38:31;5.32;;;4.75;;
23376;SDS011;14353;46.070;13.222;2023-03-08T01:40:57;4.97;;;4.32;;
23376;SDS011;14353;46.070;13.222;2023-03-08T01:43:25;5.97;;;4.70;;
23376;SDS011;14353;46.070;13.222;2023-03-08T01:48:47;5.32;;;4.53;;
23376;SDS011;14353;46.070;13.222;2023-03-08T01:51:25;6.13;;;4.97;;
23376;SDS011;14353;46.070;13.222;2023-03-08T01:53:58;6.40;;;4.80;;
23376;SDS011;14353;46.070;13.222;2023-03-08T01:56:28;5.35;;;4.80;;
23376;SDS011;14353;46.070;13.222;2023-03-08T01:58:54;5.30;;;4.80;;
23376;SDS011;14353;46.070;13.222;2023-03-08T02:01:21;4.95;;;4.45;;
23376;SDS011;14353;46.070;13.222;2023-03-08T02:03:47;6.30;;;4.72;;
23376;SDS011;14353;46.070;13.222;2023-03-08T02:06:13;5.03;;;4.53;;
23376;SDS011;14353;46.070;13.222;2023-03-08T02:08:40;5.30;;;4.70;;
23376;SDS011;14353;46.070;13.222;2023-03-08T02:11:06;5.85;;;4.50;;
23376;SDS011;14353;46.070;13.222;2023-03-08T02:13:32;5.80;;;4.95;;
23376;SDS011;14353;46.070;13.222;2023-03-08T02:15:58;5.72;;;4.45;;
23376;SDS011;14353;46.070;13.222;2023-03-08T02:18:26;6.32;;;4.95;;
23376;SDS011;14353;46.070;13.222;2023-03-08T02:20:52;5.75;;;4.57;;
23376;SDS011;14353;46.070;13.222;2023-03-08T02:23:22;6.07;;;4.70;;
23376;SDS011;14353;46.070;13.222;2023-03-08T02:28:26;5.20;;;4.43;;
23376;SDS011;14353;46.070;13.222;2023-03-08T02:30:54;5.85;;;4.70;;
23376;SDS011;14353;46.070;13.222;2023-03-08T02:33:20;4.78;;;4.28;;
23376;SDS011;14353;46.070;13.222;2023-03-08T02:35:46;5.45;;;4.38;;
23376;SDS011;14353;46.070;13.222;2023-03-08T02:38:13;5.78;;;4.43;;
23376;SDS011;14353;46.070;13.222;2023-03-08T02:40:41;6.00;;;4.90;;
23376;SDS011;14353;46.070;13.222;2023-03-08T02:43:06;5.65;;;4.78;;
23376;SDS011;14353;46.070;13.222;2023-03-08T02:45:33;5.65;;;4.30;;
23376;SDS011;14353;46.070;13.222;2023-03-08T02:47:59;5.15;;;4.65;;
23376;SDS011;14353;46.070;13.222;2023-03-08T02:50:26;6.03;;;4.60;;
23376;SDS011;14353;46.070;13.222;2023-03-08T02:52:52;4.85;;;4.25;;
23376;SDS011;14353;46.070;13.222;2023-03-08T02:55:17;5.10;;;4.22;;
23376;SDS011;14353;46.070;13.222;2023-03-08T02:57:43;5.30;;;4.20;;
23376;SDS011;14353;46.070;13.222;2023-03-08T03:00:09;5.38;;;4.60;;
23376;SDS011;14353;46.070;13.222;2023-03-08T03:02:35;5.38;;;4.05;;
23376;SDS011;14353;46.070;13.222;2023-03-08T03:05:02;4.70;;;3.97;;
23376;SDS011;14353;46.070;13.222;2023-03-08T03:07:28;6.13;;;4.57;;
23376;SDS011;14353;46.070;13.222;2023-03-08T03:09:54;5.43;;;4.38;;
23376;SDS011;14353;46.070;13.222;2023-03-08T03:12:20;5.20;;;4.43;;
23376;SDS011;14353;46.070;13.222;2023-03-08T03:14:46;5.38;;;4.30;;
23376;SDS011;14353;46.070;13.222;2023-03-08T03:17:11;5.03;;;4.10;;
23376;SDS011;14353;46.070;13.222;2023-03-08T03:19:37;4.65;;;4.10;;
23376;SDS011;14353;46.070;13.222;2023-03-08T03:22:03;4.82;;;4.20;;
23376;SDS011;14353;46.070;13.222;2023-03-08T03:24:28;5.63;;;4.53;;
23376;SDS011;14353;46.070;13.222;2023-03-08T03:26:54;4.93;;;4.30;;
23376;SDS011;14353;46.070;13.222;2023-03-08T03:29:20;4.68;;;4.18;;
23376;SDS011;14353;46.070;13.222;2023-03-08T03:31:46;5.35;;;4.53;;
23376;SDS011;14353;46.070;13.222;2023-03-08T03:34:12;4.72;;;4.20;;
23376;SDS011;14353;46.070;13.222;2023-03-08T03:36:38;5.15;;;4.35;;
23376;SDS011;14353;46.070;13.222;2023-03-08T03:39:04;4.53;;;3.90;;
23376;SDS011;14353;46.070;13.222;2023-03-08T03:41:30;5.00;;;4.20;;
23376;SDS011;14353;46.070;13.222;2023-03-08T03:43:56;5.10;;;4.50;;
23376;SDS011;14353;46.070;13.222;2023-03-08T03:46:22;5.32;;;4.40;;
23376;SDS011;14353;46.070;13.222;2023-03-08T03:48:48;5.03;;;4.32;;
23376;SDS011;14353;46.070;13.222;2023-03-08T03:51:15;5.18;;;4.13;;
23376;SDS011;14353;46.070;13.222;2023-03-08T03:53:42;5.82;;;4.68;;
23376;SDS011;14353;46.070;13.222;2023-03-08T03:58:37;5.13;;;4.05;;
23376;SDS011;14353;46.070;13.222;2023-03-08T04:01:11;4.93;;;4.10;;
23376;SDS011;14353;46.070;13.222;2023-03-08T04:03:41;4.78;;;3.83;;
23376;SDS011;14353;46.070;13.222;2023-03-08T04:06:12;4.82;;;4.30;;
23376;SDS011;14353;46.070;13.222;2023-03-08T04:08:39;5.43;;;4.15;;
23376;SDS011;14353;46.070;13.222;2023-03-08T04:11:07;6.68;;;4.07;;
23376;SDS011;14353;46.070;13.222;2023-03-08T04:13:37;4.72;;;4.10;;
23376;SDS011;14353;46.070;13.222;2023-03-08T04:16:12;5.00;;;4.03;;
23376;SDS011;14353;46.070;13.222;2023-03-08T04:18:40;4.88;;;4.10;;
23376;SDS011;14353;46.070;13.222;2023-03-08T04:21:06;4.68;;;3.95;;
23376;SDS011;14353;46.070;13.222;2023-03-08T04:23:32;5.35;;;4.10;;
23376;SDS011;14353;46.070;13.222;2023-03-08T04:25:59;5.15;;;4.18;;
23376;SDS011;14353;46.070;13.222;2023-03-08T04:28:25;5.10;;;4.00;;
23376;SDS011;14353;46.070;13.222;2023-03-08T04:30:51;4.40;;;4.00;;
23376;SDS011;14353;46.070;13.222;2023-03-08T04:33:17;5.05;;;3.90;;
23376;SDS011;14353;46.070;13.222;2023-03-08T04:35:43;5.53;;;4.25;;
23376;SDS011;14353;46.070;13.222;2023-03-08T04:38:08;4.70;;;4.10;;
23376;SDS011;14353;46.070;13.222;2023-03-08T04:40:34;5.05;;;4.00;;
23376;SDS011;14353;46.070;13.222;2023-03-08T04:43:20;4.88;;;4.07;;
23376;SDS011;14353;46.070;13.222;2023-03-08T04:45:45;5.80;;;4.30;;
23376;SDS011;14353;46.070;13.222;2023-03-08T04:48:11;5.93;;;4.18;;
23376;SDS011;14353;46.070;13.222;2023-03-08T04:50:37;4.43;;;3.80;;
23376;SDS011;14353;46.070;13.222;2023-03-08T04:53:03;4.55;;;3.78;;
23376;SDS011;14353;46.070;13.222;2023-03-08T04:55:30;4.97;;;3.95;;
23376;SDS011;14353;46.070;13.222;2023-03-08T04:57:55;4.95;;;3.88;;
23376;SDS011;14353;46.070;13.222;2023-03-08T05:00:21;4.97;;;4.10;;
23376;SDS011;14353;46.070;13.222;2023-03-08T05:02:47;4.88;;;4.05;;
23376;SDS011;14353;46.070;13.222;2023-03-08T05:05:13;4.95;;;4.00;;
23376;SDS011;14353;46.070;13.222;2023-03-08T05:07:38;4.47;;;3.97;;
23376;SDS011;14353;46.070;13.222;2023-03-08T05:10:04;5.05;;;3.88;;
23376;SDS011;14353;46.070;13.222;2023-03-08T05:12:30;5.03;;;4.03;;
23376;SDS011;14353;46.070;13.222;2023-03-08T05:14:56;4.95;;;3.80;;
23376;SDS011;14353;46.070;13.222;2023-03-08T05:17:21;4.85;;;4.15;;
23376;SDS011;14353;46.070;13.222;2023-03-08T05:19:47;4.38;;;3.83;;
23376;SDS011;14353;46.070;13.222;2023-03-08T05:22:13;4.00;;;3.60;;
23376;SDS011;14353;46.070;13.222;2023-03-08T05:24:39;4.40;;;4.00;;
23376;SDS011;14353;46.070;13.222;2023-03-08T05:27:05;4.25;;;3.83;;
23376;SDS011;14353;46.070;13.222;2023-03-08T05:29:32;4.57;;;3.80;;
23376;SDS011;14353;46.070;13.222;2023-03-08T05:31:59;4.63;;;3.97;;
23376;SDS011;14353;46.070;13.222;2023-03-08T05:34:28;4.40;;;3.88;;
23376;SDS011;14353;46.070;13.222;2023-03-08T05:36:54;5.93;;;3.90;;
23376;SDS011;14353;46.070;13.222;2023-03-08T05:39:20;4.28;;;3.75;;
23376;SDS011;14353;46.070;13.222;2023-03-08T05:41:46;3.83;;;3.40;;
23376;SDS011;14353;46.070;13.222;2023-03-08T05:44:12;4.45;;;3.67;;
23376;SDS011;14353;46.070;13.222;2023-03-08T05:46:38;4.18;;;3.78;;
23376;SDS011;14353;46.070;13.222;2023-03-08T05:49:04;4.85;;;3.67;;
23376;SDS011;14353;46.070;13.222;2023-03-08T05:51:31;4.75;;;3.67;;
23376;SDS011;14353;46.070;13.222;2023-03-08T05:53:57;4.85;;;3.83;;
23376;SDS011;14353;46.070;13.222;2023-03-08T05:56:23;5.18;;;3.75;;
23376;SDS011;14353;46.070;13.222;2023-03-08T05:58:49;5.35;;;4.05;;
23376;SDS011;14353;46.070;13.222;2023-03-08T06:01:19;4.30;;;3.90;;
23376;SDS011;14353;46.070;13.222;2023-03-08T06:03:48;4.53;;;3.65;;
23376;SDS011;14353;46.070;13.222;2023-03-08T06:06:15;4.60;;;3.70;;
23376;SDS011;14353;46.070;13.222;2023-03-08T06:08:41;3.90;;;3.50;;
23376;SDS011;14353;46.070;13.222;2023-03-08T06:11:07;4.15;;;3.65;;
23376;SDS011;14353;46.070;13.222;2023-03-08T06:13:34;5.05;;;3.60;;
23376;SDS011;14353;46.070;13.222;2023-03-08T06:16:00;5.22;;;3.80;;
23376;SDS011;14353;46.070;13.222;2023-03-08T06:18:26;3.97;;;3.53;;
23376;SDS011;14353;46.070;13.222;2023-03-08T06:23:29;5.22;;;3.83;;
23376;SDS011;14353;46.070;13.222;2023-03-08T06:25:57;5.03;;;3.75;;
23376;SDS011;14353;46.070;13.222;2023-03-08T06:28:23;7.10;;;4.00;;
23376;SDS011;14353;46.070;13.222;2023-03-08T06:30:49;6.05;;;4.20;;
23376;SDS011;14353;46.070;13.222;2023-03-08T06:33:16;5.82;;;4.30;;
23376;SDS011;14353;46.070;13.222;2023-03-08T06:35:43;5.97;;;4.32;;
23376;SDS011;14353;46.070;13.222;2023-03-08T06:38:23;11.02;;;4.60;;
23376;SDS011;14353;46.070;13.222;2023-03-08T06:40:49;9.32;;;4.07;;
23376;SDS011;14353;46.070;13.222;2023-03-08T06:43:15;9.52;;;4.45;;
23376;SDS011;14353;46.070;13.222;2023-03-08T06:45:41;7.93;;;4.50;;
23376;SDS011;14353;46.070;13.222;2023-03-08T06:48:06;8.65;;;5.20;;
23376;SDS011;14353;46.070;13.222;2023-03-08T06:50:32;6.82;;;4.93;;
23376;SDS011;14353;46.070;13.222;2023-03-08T06:52:58;8.88;;;4.95;;
23376;SDS011;14353;46.070;13.222;2023-03-08T06:55:24;15.32;;;4.85;;
23376;SDS011;14353;46.070;13.222;2023-03-08T06:57:50;12.05;;;4.97;;
23376;SDS011;14353;46.070;13.222;2023-03-08T07:00:16;12.98;;;5.38;;
23376;SDS011;14353;46.070;13.222;2023-03-08T07:02:42;11.30;;;5.57;;
23376;SDS011;14353;46.070;13.222;2023-03-08T07:05:09;12.13;;;5.03;;
23376;SDS011;14353;46.070;13.222;2023-03-08T07:07:34;11.10;;;4.85;;
23376;SDS011;14353;46.070;13.222;2023-03-08T07:10:01;12.55;;;5.50;;
23376;SDS011;14353;46.070;13.222;2023-03-08T07:12:28;9.48;;;5.35;;
23376;SDS011;14353;46.070;13.222;2023-03-08T07:14:56;9.82;;;5.55;;
23376;SDS011;14353;46.070;13.222;2023-03-08T07:17:23;16.48;;;5.45;;
23376;SDS011;14353;46.070;13.222;2023-03-08T07:19:48;14.75;;;5.70;;
23376;SDS011;14353;46.070;13.222;2023-03-08T07:22:14;11.93;;;5.57;;
23376;SDS011;14353;46.070;13.222;2023-03-08T07:24:40;12.35;;;5.35;;
23376;SDS011;14353;46.070;13.222;2023-03-08T07:27:06;12.77;;;5.93;;
23376;SDS011;14353;46.070;13.222;2023-03-08T07:29:31;13.15;;;5.47;;
23376;SDS011;14353;46.070;13.222;2023-03-08T07:31:57;15.30;;;6.18;;
23376;SDS011;14353;46.070;13.222;2023-03-08T07:34:23;14.60;;;6.40;;
23376;SDS011;14353;46.070;13.222;2023-03-08T07:36:48;12.43;;;5.65;;
23376;SDS011;14353;46.070;13.222;2023-03-08T07:39:15;15.05;;;6.63;;
23376;SDS011;14353;46.070;13.222;2023-03-08T07:41:41;13.27;;;6.22;;
23376;SDS011;14353;46.070;13.222;2023-03-08T07:44:07;10.65;;;6.15;;
23376;SDS011;14353;46.070;13.222;2023-03-08T07:46:33;10.95;;;6.18;;
23376;SDS011;14353;46.070;13.222;2023-03-08T07:48:58;11.45;;;6.07;;
23376;SDS011;14353;46.070;13.222;2023-03-08T07:51:24;12.82;;;6.00;;
23376;SDS011;14353;46.070;13.222;2023-03-08T07:53:50;12.02;;;6.63;;
23376;SDS011;14353;46.070;13.222;2023-03-08T07:56:16;14.02;;;6.45;;
23376;SDS011;14353;46.070;13.222;2023-03-08T07:58:42;14.20;;;6.55;;
23376;SDS011;14353;46.070;13.222;2023-03-08T08:01:11;13.35;;;6.40;;
23376;SDS011;14353;46.070;13.222;2023-03-08T08:03:41;10.83;;;6.00;;
23376;SDS011;14353;46.070;13.222;2023-03-08T08:06:07;12.02;;;5.97;;
23376;SDS011;14353;46.070;13.222;2023-03-08T08:08:33;11.02;;;6.25;;
23376;SDS011;14353;46.070;13.222;2023-03-08T08:10:58;9.85;;;6.15;;
23376;SDS011;14353;46.070;13.222;2023-03-08T08:13:24;11.70;;;6.28;;
23376;SDS011;14353;46.070;13.222;2023-03-08T08:16:00;14.52;;;6.70;;
23376;SDS011;14353;46.070;13.222;2023-03-08T08:18:26;15.55;;;5.85;;
23376;SDS011;14353;46.070;13.222;2023-03-08T08:21:03;15.90;;;6.75;;
23376;SDS011;14353;46.070;13.222;2023-03-08T08:23:31;12.00;;;6.22;;
23376;SDS011;14353;46.070;13.222;2023-03-08T08:25:57;15.95;;;6.43;;
23376;SDS011;14353;46.070;13.222;2023-03-08T08:28:23;15.00;;;6.65;;
23376;SDS011;14353;46.070;13.222;2023-03-08T08:30:54;14.05;;;6.50;;
23376;SDS011;14353;46.070;13.222;2023-03-08T08:33:24;16.20;;;6.45;;
23376;SDS011;14353;46.070;13.222;2023-03-08T08:35:50;12.10;;;6.82;;
23376;SDS011;14353;46.070;13.222;2023-03-08T08:38:15;13.25;;;6.60;;
23376;SDS011;14353;46.070;13.222;2023-03-08T08:40:41;14.98;;;6.28;;
23376;SDS011;14353;46.070;13.222;2023-03-08T08:43:07;15.45;;;6.47;;
23376;SDS011;14353;46.070;13.222;2023-03-08T08:45:33;14.77;;;6.65;;
23376;SDS011;14353;46.070;13.222;2023-03-08T08:47:58;14.55;;;6.70;;
23376;SDS011;14353;46.070;13.222;2023-03-08T08:50:24;13.38;;;6.25;;
23376;SDS011;14353;46.070;13.222;2023-03-08T08:52:50;10.45;;;6.00;;
23376;SDS011;14353;46.070;13.222;2023-03-08T08:55:15;15.27;;;6.10;;
23376;SDS011;14353;46.070;13.222;2023-03-08T08:57:41;12.02;;;6.15;;
23376;SDS011;14353;46.070;13.222;2023-03-08T09:00:07;9.93;;;5.70;;
23376;SDS011;14353;46.070;13.222;2023-03-08T09:02:34;10.77;;;5.32;;
23376;SDS011;14353;46.070;13.222;2023-03-08T09:05:00;15.00;;;6.22;;
23376;SDS011;14353;46.070;13.222;2023-03-08T09:07:26;13.23;;;6.38;;
23376;SDS011;14353;46.070;13.222;2023-03-08T09:09:55;13.25;;;6.10;;
23376;SDS011;14353;46.070;13.222;2023-03-08T09:12:22;14.52;;;5.57;;
23376;SDS011;14353;46.070;13.222;2023-03-08T09:14:47;13.52;;;5.63;;
23376;SDS011;14353;46.070;13.222;2023-03-08T09:17:13;13.32;;;6.00;;
23376;SDS011;14353;46.070;13.222;2023-03-08T09:19:39;12.55;;;5.60;;
23376;SDS011;14353;46.070;13.222;2023-03-08T09:22:04;13.73;;;6.55;;
23376;SDS011;14353;46.070;13.222;2023-03-08T09:24:30;13.40;;;6.35;;
23376;SDS011;14353;46.070;13.222;2023-03-08T09:26:56;13.65;;;5.80;;
23376;SDS011;14353;46.070;13.222;2023-03-08T09:29:22;13.15;;;5.50;;
23376;SDS011;14353;46.070;13.222;2023-03-08T09:31:47;14.77;;;5.75;;
23376;SDS011;14353;46.070;13.222;2023-03-08T09:34:13;15.80;;;5.85;;
23376;SDS011;14353;46.070;13.222;2023-03-08T09:36:39;16.00;;;5.72;;
23376;SDS011;14353;46.070;13.222;2023-03-08T09:39:10;10.50;;;5.57;;
23376;SDS011;14353;46.070;13.222;2023-03-08T09:44:17;9.95;;;5.05;;
23376;SDS011;14353;46.070;13.222;2023-03-08T09:47:15;10.88;;;5.03;;
23376;SDS011;14353;46.070;13.222;2023-03-08T09:50:16;13.82;;;5.15;;
23376;SDS011;14353;46.070;13.222;2023-03-08T09:55:25;12.18;;;5.00;;
23376;SDS011;14353;46.070;13.222;2023-03-08T09:58:00;13.88;;;5.03;;
23376;SDS011;14353;46.070;13.222;2023-03-08T10:00:36;12.60;;;4.95;;
23376;SDS011;14353;46.070;13.222;2023-03-08T10:08:55;11.35;;;5.00;;
23376;SDS011;14353;46.070;13.222;2023-03-08T10:11:30;12.02;;;4.20;;
23376;SDS011;14353;46.070;13.222;2023-03-08T10:14:06;9.05;;;4.20;;
23376;SDS011;14353;46.070;13.222;2023-03-08T10:16:57;13.38;;;4.25;;
23376;SDS011;14353;46.070;13.222;2023-03-08T10:19:37;16.23;;;4.30;;
23376;SDS011;14353;46.070;13.222;2023-03-08T10:22:18;15.68;;;4.35;;
23376;SDS011;14353;46.070;13.222;2023-03-08T10:25:03;10.20;;;4.32;;
23376;SDS011;14353;46.070;13.222;2023-03-08T10:27:39;14.98;;;4.40;;
23376;SDS011;14353;46.070;13.222;2023-03-08T10:30:12;12.43;;;4.43;;
23376;SDS011;14353;46.070;13.222;2023-03-08T10:32:41;15.55;;;4.70;;
23376;SDS011;14353;46.070;13.222;2023-03-08T10:35:08;12.80;;;4.53;;
23376;SDS011;14353;46.070;13.222;2023-03-08T10:37:34;13.55;;;4.35;;
23376;SDS011;14353;46.070;13.222;2023-03-08T10:40:01;13.38;;;4.40;;
23376;SDS011;14353;46.070;13.222;2023-03-08T10:42:31;12.73;;;4.28;;
23376;SDS011;14353;46.070;13.222;2023-03-08T10:45:00;13.55;;;4.32;;
23376;SDS011;14353;46.070;13.222;2023-03-08T10:47:33;23.25;;;4.65;;
23376;SDS011;14353;46.070;13.222;2023-03-08T10:52:43;12.75;;;4.10;;
23376;SDS011;14353;46.070;13.222;2023-03-08T10:57:38;11.55;;;4.10;;
23376;SDS011;14353;46.070;13.222;2023-03-08T11:02:43;12.48;;;4.38;;
23376;SDS011;14353;46.070;13.222;2023-03-08T11:05:21;11.27;;;4.47;;
23376;SDS011;14353;46.070;13.222;2023-03-08T11:07:54;14.30;;;4.00;;
23376;SDS011;14353;46.070;13.222;2023-03-08T11:10:22;8.65;;;4.05;;
23376;SDS011;14353;46.070;13.222;2023-03-08T11:15:34;11.18;;;3.95;;
23376;SDS011;14353;46.070;13.222;2023-03-08T11:18:14;12.55;;;3.65;;
23376;SDS011;14353;46.070;13.222;2023-03-08T11:21:12;13.75;;;3.78;;
23376;SDS011;14353;46.070;13.222;2023-03-08T11:38:13;13.20;;;3.63;;
23376;SDS011;14353;46.070;13.222;2023-03-08T11:49:21;11.23;;;3.90;;
23376;SDS011;14353;46.070;13.222;2023-03-08T11:57:30;11.80;;;3.33;;
23376;SDS011;14353;46.070;13.222;2023-03-08T12:00:04;9.18;;;3.42;;
23376;SDS011;14353;46.070;13.222;2023-03-08T12:02:44;7.35;;;3.97;;
23376;SDS011;14353;46.070;13.222;2023-03-08T12:05:14;9.00;;;3.28;;
23376;SDS011;14353;46.070;13.222;2023-03-08T12:07:52;11.07;;;3.15;;
23376;SDS011;14353;46.070;13.222;2023-03-08T12:13:33;11.07;;;3.65;;
23376;SDS011;14353;46.070;13.222;2023-03-08T12:26:45;5.50;;;3.10;;
23376;SDS011;14353;46.070;13.222;2023-03-08T12:29:24;11.93;;;3.55;;
23376;SDS011;14353;46.070;13.222;2023-03-08T12:31:59;8.07;;;3.20;;
23376;SDS011;14353;46.070;13.222;2023-03-08T12:34:28;6.90;;;3.33;;
23376;SDS011;14353;46.070;13.222;2023-03-08T12:37:01;10.80;;;3.15;;
23376;SDS011;14353;46.070;13.222;2023-03-08T12:39:29;7.60;;;3.03;;
23376;SDS011;14353;46.070;13.222;2023-03-08T12:41:58;5.32;;;3.15;;
23376;SDS011;14353;46.070;13.222;2023-03-08T12:44:27;10.00;;;3.50;;
23376;SDS011;14353;46.070;13.222;2023-03-08T12:47:01;6.15;;;3.17;;
23376;SDS011;14353;46.070;13.222;2023-03-08T12:49:56;13.20;;;3.60;;
23376;SDS011;14353;46.070;13.222;2023-03-08T12:52:40;9.68;;;3.38;;
23376;SDS011;14353;46.070;13.222;2023-03-08T12:55:16;8.82;;;3.72;;
23376;SDS011;14353;46.070;13.222;2023-03-08T12:57:56;7.07;;;3.55;;
23376;SDS011;14353;46.070;13.222;2023-03-08T13:00:29;7.75;;;3.50;;
23376;SDS011;14353;46.070;13.222;2023-03-08T13:02:58;10.85;;;3.47;;
23376;SDS011;14353;46.070;13.222;2023-03-08T13:05:28;8.50;;;3.20;;
23376;SDS011;14353;46.070;13.222;2023-03-08T13:08:01;10.18;;;3.67;;
23376;SDS011;14353;46.070;13.222;2023-03-08T13:10:38;7.25;;;3.30;;
23376;SDS011;14353;46.070;13.222;2023-03-08T13:16:06;7.35;;;3.60;;
23376;SDS011;14353;46.070;13.222;2023-03-08T13:19:00;6.85;;;3.40;;
23376;SDS011;14353;46.070;13.222;2023-03-08T13:24:43;9.65;;;3.80;;
23376;SDS011;14353;46.070;13.222;2023-03-08T13:27:20;9.02;;;3.60;;
23376;SDS011;14353;46.070;13.222;2023-03-08T13:29:49;7.30;;;3.88;;
23376;SDS011;14353;46.070;13.222;2023-03-08T13:32:16;8.77;;;3.55;;
23376;SDS011;14353;46.070;13.222;2023-03-08T13:34:43;8.43;;;3.60;;
23376;SDS011;14353;46.070;13.222;2023-03-08T13:37:23;7.53;;;3.22;;
23376;SDS011;14353;46.070;13.222;2023-03-08T13:39:51;10.43;;;3.53;;
23376;SDS011;14353;46.070;13.222;2023-03-08T13:42:18;6.95;;;3.33;;
23376;SDS011;14353;46.070;13.222;2023-03-08T13:44:49;9.90;;;3.42;;
23376;SDS011;14353;46.070;13.222;2023-03-08T13:49:49;8.48;;;3.42;;
23376;SDS011;14353;46.070;13.222;2023-03-08T13:52:24;6.95;;;3.22;;
23376;SDS011;14353;46.070;13.222;2023-03-08T13:54:55;8.43;;;3.40;;
23376;SDS011;14353;46.070;13.222;2023-03-08T13:57:24;6.25;;;3.47;;
23376;SDS011;14353;46.070;13.222;2023-03-08T13:59:53;5.25;;;3.55;;
23376;SDS011;14353;46.070;13.222;2023-03-08T14:02:24;12.68;;;4.03;;
23376;SDS011;14353;46.070;13.222;2023-03-08T14:04:51;9.45;;;3.75;;
23376;SDS011;14353;46.070;13.222;2023-03-08T14:07:21;7.03;;;3.17;;
23376;SDS011;14353;46.070;13.222;2023-03-08T14:09:52;12.25;;;4.18;;
23376;SDS011;14353;46.070;13.222;2023-03-08T14:12:19;8.40;;;3.40;;
23376;SDS011;14353;46.070;13.222;2023-03-08T14:14:51;7.38;;;3.25;;
23376;SDS011;14353;46.070;13.222;2023-03-08T14:17:26;9.60;;;3.30;;
23376;SDS011;14353;46.070;13.222;2023-03-08T14:20:01;9.50;;;3.50;;
23376;SDS011;14353;46.070;13.222;2023-03-08T14:22:37;6.90;;;3.30;;
23376;SDS011;14353;46.070;13.222;2023-03-08T14:25:03;7.15;;;3.35;;
23376;SDS011;14353;46.070;13.222;2023-03-08T14:27:31;8.45;;;3.72;;
23376;SDS011;14353;46.070;13.222;2023-03-08T14:30:02;10.18;;;3.60;;
23376;SDS011;14353;46.070;13.222;2023-03-08T14:32:37;8.02;;;3.88;;
23376;SDS011;14353;46.070;13.222;2023-03-08T14:35:15;11.85;;;3.50;;
23376;SDS011;14353;46.070;13.222;2023-03-08T14:37:46;8.95;;;3.40;;
23376;SDS011;14353;46.070;13.222;2023-03-08T14:42:45;12.27;;;3.83;;
23376;SDS011;14353;46.070;13.222;2023-03-08T14:47:55;9.70;;;3.75;;
23376;SDS011;14353;46.070;13.222;2023-03-08T14:50:27;8.57;;;3.63;;
23376;SDS011;14353;46.070;13.222;2023-03-08T14:52:58;7.45;;;3.45;;
23376;SDS011;14353;46.070;13.222;2023-03-08T14:57:57;7.22;;;3.05;;
23376;SDS011;14353;46.070;13.222;2023-03-08T15:00:27;6.35;;;3.38;;
23376;SDS011;14353;46.070;13.222;2023-03-08T15:02:55;5.90;;;3.22;;
23376;SDS011;14353;46.070;13.222;2023-03-08T15:05:22;12.10;;;3.28;;
23376;SDS011;14353;46.070;13.222;2023-03-08T15:07:49;6.28;;;2.80;;
23376;SDS011;14353;46.070;13.222;2023-03-08T15:13:01;7.22;;;3.28;;
23376;SDS011;14353;46.070;13.222;2023-03-08T15:15:27;4.95;;;3.03;;
23376;SDS011;14353;46.070;13.222;2023-03-08T15:17:53;6.95;;;2.75;;
23376;SDS011;14353;46.070;13.222;2023-03-08T15:20:19;6.63;;;2.92;;
23376;SDS011;14353;46.070;13.222;2023-03-08T15:22:50;5.32;;;3.10;;
23376;SDS011;14353;46.070;13.222;2023-03-08T15:25:24;7.20;;;2.70;;
23376;SDS011;14353;46.070;13.222;2023-03-08T15:27:52;9.23;;;3.40;;
23376;SDS011;14353;46.070;13.222;2023-03-08T15:30:22;5.80;;;3.33;;
23376;SDS011;14353;46.070;13.222;2023-03-08T15:32:49;7.55;;;2.80;;
23376;SDS011;14353;46.070;13.222;2023-03-08T15:35:15;5.45;;;2.42;;
23376;SDS011;14353;46.070;13.222;2023-03-08T15:37:42;5.57;;;2.92;;
23376;SDS011;14353;46.070;13.222;2023-03-08T15:40:15;5.68;;;2.70;;
23376;SDS011;14353;46.070;13.222;2023-03-08T15:42:43;8.10;;;3.00;;
23376;SDS011;14353;46.070;13.222;2023-03-08T15:45:09;9.32;;;3.20;;
23376;SDS011;14353;46.070;13.222;2023-03-08T15:47:36;5.97;;;2.72;;
23376;SDS011;14353;46.070;13.222;2023-03-08T15:50:14;6.60;;;2.90;;
23376;SDS011;14353;46.070;13.222;2023-03-08T15:52:41;7.00;;;2.65;;
23376;SDS011;14353;46.070;13.222;2023-03-08T15:55:09;5.95;;;3.03;;
23376;SDS011;14353;46.070;13.222;2023-03-08T15:57:36;6.38;;;2.83;;
23376;SDS011;14353;46.070;13.222;2023-03-08T16:00:03;5.63;;;2.90;;
23376;SDS011;14353;46.070;13.222;2023-03-08T16:02:33;5.25;;;3.17;;
23376;SDS011;14353;46.070;13.222;2023-03-08T16:05:00;5.30;;;2.88;;
23376;SDS011;14353;46.070;13.222;2023-03-08T16:07:26;6.93;;;2.90;;
23376;SDS011;14353;46.070;13.222;2023-03-08T16:09:52;6.20;;;2.95;;
23376;SDS011;14353;46.070;13.222;2023-03-08T16:12:18;4.07;;;2.80;;